Flight Track Log - Related Links

Times and Time Zones

All times are in EDT time to prevent confusion due to time zone crossing. See the JAI305 flight status page for this flight to view local times or setup timezone preferences in your user account.

Time Position Orientation Groundspeed Altitude Reporting Facility
EDT Latitude Longitude Course Direction KTS MPH feet Rate Location/Type
Mon 11:18:28 PM 28.5480 77.0650 283° West 161 185 1,700  Level FlightAware ADS-B
Mon 11:18:53 PM 28.5530 77.0420 284° West 183 211 2,200 1,050 Climbing FlightAware ADS-B
Mon 11:19:08 PM 28.5550 77.0340 286° West 193 222 2,400 1,067 Climbing FlightAware ADS-B
Mon 11:19:38 PM 28.5490 76.9990 259° West 223 257 3,000 1,091 Climbing FlightAware ADS-B
Mon 11:20:03 PM 28.5410 76.9700 253° West 255 293 3,400 1,855 Climbing FlightAware ADS-B
Mon 11:20:33 PM 28.5300 76.9310 252° West 270 311 4,700 3,164 Climbing FlightAware ADS-B
Mon 11:20:58 PM 28.5170 76.8880 251° West 273 314 6,300 2,800 Climbing FlightAware ADS-B
Mon 11:21:18 PM 28.5140 76.8640 262° West 275 316 6,800 1,400 Climbing FlightAware ADS-B
Mon 11:21:58 PM 28.5290 76.7990 285° West 290 334 7,700 1,900 Climbing FlightAware ADS-B
Mon 11:22:18 PM 28.5370 76.7660 285° West 324 373 8,700 1,705 Climbing FlightAware ADS-B
Mon 11:23:33 PM 28.5670 76.6560 287° West 334 384 10,400 2,050 Climbing FlightAware ADS-B
Mon 11:24:18 PM 28.6200 76.5830 310° West 342 394 12,800 1,694 Climbing FlightAware ADS-B
Mon 11:24:58 PM 28.6490 76.5320 303° West 342 394 12,800 4,547 Level FlightAware ADS-B
Mon 11:25:53 PM 28.7260 76.4120 306° West 362 417 20,000 5,580 Climbing FlightAware ADS-B
Mon 11:26:38 PM 28.7690 76.3380 304° West 365 420 22,100 2,682 Climbing FlightAware ADS-B
Mon 11:27:18 PM 28.8080 76.2750 305° West 371 427 23,800 2,400 Climbing FlightAware ADS-B
Mon 11:27:58 PM 28.8470 76.2100 304° West 379 436 25,300 2,118 Climbing FlightAware ADS-B
Mon 11:28:43 PM 28.8920 76.1350 304° West 387 445 26,800 1,835 Climbing FlightAware ADS-B
Mon 11:29:23 PM 28.9340 76.0640 304° West 398 458 27,900 1,350 Climbing FlightAware ADS-B
Mon 11:30:03 PM 28.9770 75.9920 304° West 418 481 28,600 1,482 Climbing FlightAware ADS-B
Mon 11:30:48 PM 29.0340 75.9190 312° West 440 506 30,000 988 Climbing FlightAware ADS-B
Mon 11:31:28 PM 29.1120 75.8790 336° Northwest 461 531 30,000  Level FlightAware ADS-B
Mon 11:32:13 PM 29.2030 75.8410 340° North 459 528 30,000  Level FlightAware ADS-B
Mon 11:32:53 PM 29.2840 75.8070 340° North 458 527 30,000  Level FlightAware ADS-B
Mon 11:33:38 PM 29.3710 75.7710 340° North 457 526 30,000  Level FlightAware ADS-B
Mon 11:34:18 PM 29.4500 75.7370 339° North 457 526 30,000  Level FlightAware ADS-B
Mon 11:34:58 PM 29.5220 75.7060 339° North 457 526 30,000  Level FlightAware ADS-B
Mon 11:35:38 PM 29.5900 75.6760 339° North 457 526 30,000  Level FlightAware ADS-B
Mon 11:36:18 PM 29.6570 75.6470 339° North 457 526 30,000  Level FlightAware ADS-B
Mon 11:37:08 PM 29.7410 75.6090 339° North 457 526 30,000  Level FlightAware ADS-B
Mon 11:37:48 PM 29.8080 75.5800 339° North 457 526 30,000  Level FlightAware ADS-B
Mon 11:38:33 PM 29.9650 75.5190 341° North 468 539 30,000  Level FlightAware ADS-B
Mon 11:39:13 PM 30.0460 75.4850 340° North 469 540 30,000  Level FlightAware ADS-B
Mon 11:39:53 PM 30.1270 75.4500 340° North 468 539 30,000 -71 Level FlightAware ADS-B
Mon 11:40:38 PM 30.2190 75.4100 339° North 467 537 29,900 -1,482 Descending FlightAware ADS-B
Mon 11:41:18 PM 30.3020 75.3750 340° North 467 537 27,900 -2,850 Descending FlightAware ADS-B
Mon 11:41:58 PM 30.3810 75.3410 340° North 458 527 26,100 -2,612 Descending FlightAware ADS-B
Mon 11:42:43 PM 30.4680 75.3040 340° North 444 511 24,200 -2,541 Descending FlightAware ADS-B
Mon 11:43:23 PM 30.5440 75.2720 340° North 433 498 22,500 -2,471 Descending FlightAware ADS-B
Mon 11:44:08 PM 30.6290 75.2350 339° North 420 483 20,700 -2,400 Descending FlightAware ADS-B
Mon 11:44:48 PM 30.7010 75.2040 340° North 410 472 19,100 -2,325 Descending FlightAware ADS-B
Mon 11:45:28 PM 30.7710 75.1730 339° North 401 461 17,600 -2,329 Descending FlightAware ADS-B
Mon 11:46:13 PM 30.8490 75.1400 340° North 394 453 15,800 -2,400 Descending FlightAware ADS-B
Mon 11:46:53 PM 30.9170 75.1140 342° North 388 447 14,200 -2,325 Descending FlightAware ADS-B
Mon 11:47:33 PM 30.9840 75.0870 341° North 380 437 12,700 -2,329 Descending FlightAware ADS-B
Mon 11:48:18 PM 31.0600 75.0570 341° North 369 425 10,900 -2,259 Descending FlightAware ADS-B
Mon 11:48:58 PM 31.1230 75.0310 341° North 358 412 9,500 -2,143 Descending FlightAware ADS-B
Mon 11:49:28 PM 31.1670 75.0130 341° North 351 404 8,400 -1,527 Descending FlightAware ADS-B
Mon 11:49:53 PM 31.2060 74.9970 341° North 330 380 8,100 -436 Descending FlightAware ADS-B
Mon 11:50:23 PM 31.2470 74.9810 342° North 299 344 8,000 -100 Descending FlightAware ADS-B
Mon 11:50:53 PM 31.2840 74.9660 341° North 267 307 8,000  Level FlightAware ADS-B
Mon 11:51:13 PM 31.3060 74.9570 341° North 251 289 8,000 -545 Level FlightAware ADS-B
Mon 11:51:48 PM 31.3430 74.9420 341° North 243 280 7,500 -1,000 Descending FlightAware ADS-B
Mon 11:52:13 PM 31.3700 74.9310 341° North 236 272 7,000 -1,200 Descending FlightAware ADS-B
Mon 11:52:43 PM 31.3990 74.9200 342° North 216 249 6,400 -1,600 Descending FlightAware ADS-B
Mon 11:53:13 PM 31.4280 74.9100 344° North 216 249 5,400 -1,636 Descending FlightAware ADS-B
Mon 11:53:38 PM 31.4520 74.9040 348° North 204 235 4,900 -600 Descending FlightAware ADS-B
Mon 11:54:13 PM 31.4800 74.8970 348° North 200 230 4,800 -171 Descending FlightAware ADS-B
Mon 11:56:00 PM 31.5837 74.8525 340° North  Level Estimated
Mon 11:57:00 PM 31.6613 74.8192 340° North  Level Estimated
Mon 11:58:00 PM 31.7078 74.7992 340° North  Level Estimated
Mon 11:59:00 PM 31.7078 74.7992 320° Northwest  Level Estimated
Tue 12:00:00 AM 31.7078 74.7992 320° Northwest  Level Estimated
Tue 12:01:00 AM 31.7078 74.7992 320° Northwest  Level Estimated
Tue 12:02:00 AM 31.7078 74.7992 320° Northwest  Level Estimated
Tue 12:03:00 AM 31.7078 74.7992 320° Northwest  Level Estimated
Tue 12:04:00 AM 31.7078 74.7992 320° Northwest  Level Estimated

Login

Don't have an account? Register now (free) for customized features, flight alerts, and more!